Time;durP1;ratioP1;P1;durP2;ratioP2;P2;SDS_P1;SDS_P2;PMS_P1;PMS_P2;Temp;Humidity;BMP_temperature;BMP_pressure;BME280_temperature;BME280_humidity;BME280_pressure;Samples;Min_cycle;Max_cycle;Signal;HPM_P1;HPM_P2
2022/07/10 00:00:33;;;;;;;5.82;1.25;;;17.60;91.80;;;;;;5090727;28;20054;-81
2022/07/10 00:02:58;;;;;;;7.25;1.35;;;17.60;92.00;;;;;;5091052;28;20032;-81
2022/07/10 00:05:25;;;;;;;6.93;1.20;;;17.50;92.10;;;;;;5071906;28;20454;-81
2022/07/10 00:07:52;;;;;;;6.15;1.50;;;17.50;92.10;;;;;;5090706;28;20031;-81
2022/07/10 00:10:19;;;;;;;6.45;1.40;;;17.50;92.30;;;;;;5089572;28;20115;-80
2022/07/10 00:12:46;;;;;;;5.93;1.80;;;17.50;92.10;;;;;;5091159;28;20039;-81
2022/07/10 00:15:13;;;;;;;6.50;1.40;;;17.50;92.10;;;;;;5090777;28;20313;-81
2022/07/10 00:17:39;;;;;;;7.28;1.63;;;17.50;91.90;;;;;;5090626;28;20123;-81
2022/07/10 00:20:07;;;;;;;4.70;1.20;;;17.40;91.90;;;;;;5090540;28;20028;-81
2022/07/10 00:22:36;;;;;;;4.88;1.30;;;17.40;91.70;;;;;;5090779;28;20447;-80
2022/07/10 00:25:03;;;;;;;5.68;1.10;;;17.40;91.90;;;;;;5089381;28;20039;-80
2022/07/10 00:27:28;;;;;;;3.80;0.80;;;17.40;91.90;;;;;;5089367;28;20028;-81
2022/07/10 00:29:54;;;;;;;8.18;1.60;;;17.30;92.00;;;;;;5090517;28;20119;-81
2022/07/10 00:32:20;;;;;;;5.68;1.20;;;17.30;92.00;;;;;;5090731;28;20031;-80
2022/07/10 00:34:46;;;;;;;4.43;1.40;;;17.30;92.00;;;;;;5090563;28;20028;-81
2022/07/10 00:37:12;;;;;;;4.22;1.48;;;17.30;92.10;;;;;;5090649;28;20036;-81
2022/07/10 00:39:37;;;;;;;9.68;2.42;;;17.30;92.10;;;;;;5090294;28;20031;-81
2022/07/10 00:42:11;;;;;;;5.40;1.08;;;17.30;92.10;;;;;;5090634;28;20035;-81
2022/07/10 00:44:38;;;;;;;7.13;1.92;;;17.30;92.10;;;;;;5089132;28;20042;-81
2022/07/10 00:47:08;;;;;;;10.90;1.80;;;17.30;91.90;;;;;;5089046;28;20032;-81
2022/07/10 00:49:35;;;;;;;9.48;1.40;;;17.40;91.80;;;;;;5072110;28;20399;-81
2022/07/10 00:52:03;;;;;;;5.97;1.85;;;17.30;91.20;;;;;;5090529;28;20028;-81
2022/07/10 00:54:30;;;;;;;6.43;1.48;;;17.30;91.30;;;;;;5090577;28;20107;-80
2022/07/10 00:56:57;;;;;;;5.80;1.60;;;17.30;91.20;;;;;;5089088;28;20372;-81
2022/07/10 00:59:23;;;;;;;5.15;1.65;;;17.30;91.80;;;;;;5090667;28;20081;-81
2022/07/10 01:01:50;;;;;;;6.00;1.77;;;17.40;92.00;;;;;;5090290;28;20028;-80
2022/07/10 01:04:16;;;;;;;6.82;1.73;;;17.40;92.00;;;;;;5090039;28;20501;-81
2022/07/10 01:06:42;;;;;;;6.32;1.52;;;17.30;92.10;;;;;;5088967;28;20028;-80
2022/07/10 01:09:08;;;;;;;5.75;1.60;;;17.40;92.10;;;;;;5088966;28;20199;-81
2022/07/10 01:11:36;;;;;;;11.50;1.95;;;17.40;92.20;;;;;;5089126;28;20107;-80
2022/07/10 01:14:02;;;;;;;5.28;1.50;;;17.40;92.20;;;;;;5090199;28;20024;-80
2022/07/10 01:16:29;;;;;;;6.30;1.63;;;17.40;92.20;;;;;;5091361;28;20066;-81
2022/07/10 01:18:56;;;;;;;9.32;1.95;;;17.40;92.20;;;;;;5093949;28;20055;-80
2022/07/10 01:21:26;;;;;;;9.63;1.77;;;17.50;92.20;;;;;;5092731;28;20028;-81
2022/07/10 01:23:52;;;;;;;8.35;1.70;;;17.40;92.00;;;;;;5093788;28;20039;-81
2022/07/10 01:26:20;;;;;;;5.68;1.58;;;17.50;92.10;;;;;;5093648;28;20051;-80
2022/07/10 01:28:48;;;;;;;7.32;1.75;;;17.50;91.90;;;;;;5093679;28;20036;-81
2022/07/10 01:31:14;;;;;;;5.85;1.40;;;17.50;91.90;;;;;;5093722;28;20024;-80
2022/07/10 01:33:40;;;;;;;6.07;1.10;;;17.50;92.10;;;;;;5075408;28;20036;-81
2022/07/10 01:36:07;;;;;;;8.32;1.92;;;17.50;92.30;;;;;;5093431;28;20384;-80
2022/07/10 01:38:33;;;;;;;7.47;1.75;;;17.40;92.10;;;;;;5093420;28;20064;-80
2022/07/10 01:40:58;;;;;;;7.68;1.83;;;17.40;92.20;;;;;;5093617;28;20052;-80
2022/07/10 01:43:24;;;;;;;8.88;2.40;;;17.50;92.10;;;;;;5093552;28;20028;-80
2022/07/10 01:45:51;;;;;;;4.60;1.40;;;17.50;92.20;;;;;;5093110;28;20434;-81
2022/07/10 01:48:16;;;;;;;10.52;1.88;;;17.40;92.50;;;;;;5093401;28;20472;-81
2022/07/10 01:50:43;;;;;;;6.57;1.27;;;17.40;92.70;;;;;;5093351;28;20043;-80
2022/07/10 01:53:10;;;;;;;8.55;1.73;;;17.40;92.90;;;;;;5093466;28;20396;-81
2022/07/10 01:55:37;;;;;;;7.32;1.50;;;17.40;92.90;;;;;;5093070;28;20050;-81
2022/07/10 01:58:02;;;;;;;5.82;1.25;;;17.40;93.00;;;;;;5091938;28;20039;-81
2022/07/10 02:00:28;;;;;;;4.75;1.02;;;17.30;93.00;;;;;;5092805;28;20028;-81
2022/07/10 02:05:38;;;;;;;6.07;1.50;;;17.30;93.20;;;;;;5092859;28;20031;-81
2022/07/10 02:08:06;;;;;;;8.02;1.40;;;17.30;93.20;;;;;;5093086;28;20446;-81
2022/07/10 02:10:32;;;;;;;6.53;1.30;;;17.30;93.20;;;;;;5091429;28;20103;-81
2022/07/10 02:12:58;;;;;;;5.63;1.10;;;17.30;93.10;;;;;;5092862;28;20118;-81
2022/07/10 02:15:24;;;;;;;4.72;1.25;;;17.30;93.30;;;;;;5092946;28;20052;-81
2022/07/10 02:17:49;;;;;;;4.88;1.25;;;17.30;93.30;;;;;;5092638;28;20477;-81
2022/07/10 02:20:15;;;;;;;6.20;1.45;;;17.30;93.40;;;;;;5092561;28;20039;-81
2022/07/10 02:22:42;;;;;;;6.18;1.20;;;17.30;93.40;;;;;;5092707;28;20035;-81
2022/07/10 02:25:08;;;;;;;3.80;1.05;;;17.30;93.40;;;;;;5092595;28;20051;-81
2022/07/10 02:27:34;;;;;;;7.57;1.60;;;17.20;93.40;;;;;;5091431;28;20099;-81
2022/07/10 02:30:00;;;;;;;8.80;1.70;;;17.20;93.50;;;;;;5092343;28;20580;-81
2022/07/10 02:32:26;;;;;;;7.60;1.10;;;17.20;93.60;;;;;;5092659;28;20031;-81
2022/07/10 02:34:51;;;;;;;6.63;1.40;;;17.20;93.70;;;;;;5092547;28;20073;-81
2022/07/10 02:37:17;;;;;;;7.32;1.40;;;17.20;93.70;;;;;;5092310;28;20039;-81
2022/07/10 02:39:43;;;;;;;4.03;1.20;;;17.10;93.70;;;;;;5092230;28;20535;-81
2022/07/10 02:42:08;;;;;;;3.92;1.10;;;17.20;93.80;;;;;;5092380;28;20492;-81
2022/07/10 02:44:34;;;;;;;5.18;1.42;;;17.10;93.80;;;;;;5091198;28;20036;-81
2022/07/10 02:47:00;;;;;;;6.07;1.25;;;17.10;93.90;;;;;;5092112;28;20068;-81
2022/07/10 02:49:26;;;;;;;8.45;1.67;;;17.10;93.90;;;;;;5090913;28;20476;-81
2022/07/10 02:51:52;;;;;;;11.50;3.38;;;17.10;93.70;;;;;;5092173;28;20031;-81
2022/07/10 02:54:18;;;;;;;7.75;2.25;;;17.10;93.80;;;;;;5092086;28;20040;-81
2022/07/10 02:56:44;;;;;;;9.43;3.50;;;17.10;93.80;;;;;;5091833;28;20028;-81
2022/07/10 02:59:09;;;;;;;5.70;1.70;;;17.10;93.90;;;;;;5091880;28;20020;-79
2022/07/10 03:01:35;;;;;;;5.53;1.77;;;17.10;94.00;;;;;;5091961;28;20401;-79
2022/07/10 03:04:01;;;;;;;6.32;2.72;;;17.10;94.10;;;;;;5091778;28;20081;-79
2022/07/10 03:06:27;;;;;;;8.50;2.97;;;17.10;94.20;;;;;;5091701;28;20118;-79
2022/07/10 03:08:53;;;;;;;11.15;2.42;;;17.00;94.30;;;;;;5091782;28;20024;-79
2022/07/10 03:11:18;;;;;;;5.20;1.50;;;17.00;94.30;;;;;;5091773;28;20043;-79
2022/07/10 03:13:44;;;;;;;8.60;2.50;;;16.90;94.40;;;;;;5091602;28;20024;-79
2022/07/10 03:16:10;;;;;;;4.32;1.88;;;16.90;94.30;;;;;;5091601;28;20034;-79
2022/07/10 03:18:36;;;;;;;7.72;2.17;;;16.90;94.30;;;;;;5091529;28;20031;-79
2022/07/10 03:21:01;;;;;;;7.75;1.63;;;16.80;94.30;;;;;;5091728;28;20055;-79
2022/07/10 03:23:27;;;;;;;6.53;1.58;;;16.80;94.50;;;;;;5091498;28;20537;-79
2022/07/10 03:25:53;;;;;;;4.43;1.58;;;16.80;94.50;;;;;;5091309;28;20040;-79
2022/07/10 03:28:21;;;;;;;7.27;1.87;;;16.80;94.60;;;;;;5091568;28;20507;-79
2022/07/10 03:30:47;;;;;;;5.85;1.60;;;16.80;94.60;;;;;;5090318;28;20072;-79
2022/07/10 03:33:12;;;;;;;6.57;1.88;;;16.80;94.60;;;;;;5091578;28;20081;-79
2022/07/10 03:35:38;;;;;;;4.68;1.65;;;16.80;94.70;;;;;;5091258;28;20059;-79
2022/07/10 03:38:04;;;;;;;8.02;1.85;;;16.70;94.70;;;;;;5091369;28;20483;-79
2022/07/10 03:40:29;;;;;;;6.57;1.45;;;16.70;94.90;;;;;;5090877;28;20039;-79
2022/07/10 03:42:55;;;;;;;6.63;1.65;;;16.70;94.90;;;;;;5091204;28;20488;-79
2022/07/10 03:45:21;;;;;;;5.65;1.98;;;16.60;95.00;;;;;;5091474;28;20290;-79
2022/07/10 03:47:47;;;;;;;5.63;1.63;;;16.60;95.00;;;;;;5089886;28;20063;-79
2022/07/10 03:50:12;;;;;;;7.85;1.85;;;16.60;95.10;;;;;;5091018;28;20028;-79
2022/07/10 03:52:38;;;;;;;5.28;1.52;;;16.60;95.10;;;;;;5091236;28;20062;-79
2022/07/10 03:55:04;;;;;;;7.22;1.95;;;16.70;95.10;;;;;;5091546;28;20388;-79
2022/07/10 04:00:14;;;;;;;8.60;1.45;;;16.60;95.30;;;;;;5090979;28;20031;-79
2022/07/10 04:02:40;;;;;;;7.03;1.50;;;16.60;95.30;;;;;;5089778;28;20036;-79
2022/07/10 04:05:08;;;;;;;7.80;2.03;;;16.60;95.40;;;;;;5090676;28;20115;-79
2022/07/10 04:07:35;;;;;;;5.70;1.63;;;16.60;95.50;;;;;;5089762;28;20078;-79
2022/07/10 04:10:01;;;;;;;7.60;1.70;;;16.60;95.50;;;;;;5090832;28;20290;-79
2022/07/10 04:12:27;;;;;;;6.95;1.95;;;16.60;95.60;;;;;;5090948;28;20032;-79
2022/07/10 04:14:53;;;;;;;6.90;1.80;;;16.60;95.70;;;;;;5089640;28;20032;-79
2022/07/10 04:17:18;;;;;;;9.93;2.00;;;16.60;95.70;;;;;;5091193;28;20547;-79
2022/07/10 04:19:44;;;;;;;5.95;1.83;;;16.60;95.80;;;;;;5090529;28;20040;-79
2022/07/10 04:22:10;;;;;;;7.55;1.90;;;16.60;95.80;;;;;;5090803;28;20036;-79
2022/07/10 04:24:36;;;;;;;5.60;1.80;;;16.60;95.80;;;;;;5090645;28;20040;-79
2022/07/10 04:27:02;;;;;;;11.85;2.40;;;16.50;96.00;;;;;;5090571;28;20025;-79
2022/07/10 04:29:27;;;;;;;6.07;2.10;;;16.50;96.10;;;;;;5090941;28;20046;-79
2022/07/10 04:31:54;;;;;;;5.53;1.95;;;16.50;96.10;;;;;;5090808;28;20020;-79
2022/07/10 04:34:20;;;;;;;7.38;2.00;;;16.50;96.10;;;;;;5090703;28;20036;-79
2022/07/10 04:36:45;;;;;;;7.05;1.90;;;16.50;96.10;;;;;;5090487;28;20073;-79
2022/07/10 04:39:11;;;;;;;5.65;1.75;;;16.60;96.20;;;;;;5090567;28;20040;-79
2022/07/10 04:41:37;;;;;;;6.38;1.80;;;16.50;96.20;;;;;;5090692;28;20039;-79
2022/07/10 04:44:03;;;;;;;6.47;1.73;;;16.50;96.20;;;;;;5090624;28;20032;-79
2022/07/10 04:46:29;;;;;;;5.20;1.45;;;16.60;96.30;;;;;;5090585;28;20028;-79
2022/07/10 04:48:55;;;;;;;7.55;2.00;;;16.60;96.20;;;;;;5090413;28;20054;-79
2022/07/10 04:51:20;;;;;;;7.50;1.70;;;16.60;96.20;;;;;;5090773;28;20032;-79
2022/07/10 04:53:46;;;;;;;4.35;1.55;;;16.60;96.30;;;;;;5094780;28;20056;-79
2022/07/10 04:56:12;;;;;;;5.20;1.50;;;16.60;96.50;;;;;;5094556;28;20043;-79
2022/07/10 04:58:38;;;;;;;5.72;1.40;;;16.60;96.50;;;;;;5094403;28;20449;-79
2022/07/10 05:01:03;;;;;;;6.75;1.55;;;16.60;96.60;;;;;;5094526;28;20050;-79
2022/07/10 05:03:29;;;;;;;5.60;1.55;;;16.60;96.50;;;;;;5094267;28;20036;-79
2022/07/10 05:05:55;;;;;;;7.53;1.80;;;16.60;96.60;;;;;;5094023;28;20070;-79
2022/07/10 05:08:21;;;;;;;7.18;1.90;;;16.70;96.60;;;;;;5093130;28;20024;-79
2022/07/10 05:10:46;;;;;;;6.90;1.92;;;16.80;96.60;;;;;;5094170;28;20432;-79
2022/07/10 05:13:13;;;;;;;8.65;2.42;;;16.80;96.70;;;;;;5094336;28;20157;-79
2022/07/10 05:15:39;;;;;;;9.48;1.83;;;16.80;96.60;;;;;;5094110;28;20035;-79
2022/07/10 05:18:05;;;;;;;8.55;2.35;;;16.80;96.60;;;;;;5094069;28;20105;-79
2022/07/10 05:20:31;;;;;;;7.10;2.00;;;16.80;96.80;;;;;;5093863;28;20032;-79
2022/07/10 05:22:57;;;;;;;7.63;1.90;;;16.80;96.80;;;;;;5092875;28;20115;-79
2022/07/10 05:25:22;;;;;;;6.82;2.65;;;16.80;96.60;;;;;;5093934;28;20173;-79
2022/07/10 05:27:48;;;;;;;9.80;3.67;;;16.80;96.50;;;;;;5093914;28;20028;-79
2022/07/10 05:30:14;;;;;;;6.90;2.63;;;16.80;96.60;;;;;;5093771;28;20028;-79
2022/07/10 05:32:46;;;;;;;7.30;2.53;;;16.70;96.50;;;;;;5093942;28;20028;-79
2022/07/10 05:35:13;;;;;;;8.02;2.25;;;16.80;96.70;;;;;;5093929;28;20032;-79
2022/07/10 05:37:39;;;;;;;6.50;2.17;;;16.80;96.80;;;;;;5093844;28;20074;-79
2022/07/10 05:40:06;;;;;;;8.98;2.40;;;16.90;96.40;;;;;;5092551;28;20040;-79
2022/07/10 05:42:31;;;;;;;7.22;2.30;;;16.90;96.50;;;;;;5092736;28;20031;-79
2022/07/10 05:44:57;;;;;;;6.70;1.88;;;16.90;96.50;;;;;;5092289;28;20044;-79
2022/07/10 05:47:23;;;;;;;9.57;3.30;;;17.00;96.00;;;;;;5093321;28;20143;-79
2022/07/10 05:49:49;;;;;;;10.23;3.45;;;17.00;95.80;;;;;;5093335;28;20464;-79
2022/07/10 05:52:14;;;;;;;7.82;2.53;;;17.00;95.50;;;;;;5093808;28;20035;-79
2022/07/10 05:54:40;;;;;;;7.57;2.38;;;17.00;95.40;;;;;;5093498;28;20028;-79
2022/07/10 05:57:06;;;;;;;7.95;2.20;;;17.00;95.80;;;;;;5093402;28;20106;-79
2022/07/10 05:59:35;;;;;;;9.20;1.92;;;17.00;95.50;;;;;;5093301;28;20028;-79
2022/07/10 06:02:01;;;;;;;10.40;2.25;;;17.00;95.60;;;;;;5093050;28;20028;-79
2022/07/10 06:04:27;;;;;;;5.82;2.00;;;17.00;95.90;;;;;;5092003;28;20028;-79
2022/07/10 06:06:53;;;;;;;7.95;1.80;;;17.00;96.00;;;;;;5093320;28;20097;-79
2022/07/10 06:09:18;;;;;;;6.55;1.80;;;17.00;96.10;;;;;;5093135;28;20042;-79
2022/07/10 06:11:45;;;;;;;8.45;1.90;;;17.00;96.20;;;;;;5093288;28;20127;-79
2022/07/10 06:14:14;;;;;;;5.82;1.52;;;17.00;96.20;;;;;;5093199;28;20063;-79
2022/07/10 06:16:40;;;;;;;7.22;1.65;;;17.00;96.20;;;;;;5092923;28;20028;-79
2022/07/10 06:19:06;;;;;;;6.07;1.80;;;17.00;96.20;;;;;;5093004;28;20400;-79
2022/07/10 06:21:32;;;;;;;5.57;1.80;;;17.00;96.20;;;;;;5093082;28;20016;-79
2022/07/10 06:23:58;;;;;;;8.43;2.60;;;17.00;96.30;;;;;;5092998;28;20028;-79
2022/07/10 06:26:24;;;;;;;5.07;1.65;;;16.90;96.20;;;;;;5092964;28;20113;-79
2022/07/10 06:28:50;;;;;;;7.05;2.10;;;16.90;96.20;;;;;;5092844;28;20060;-79
2022/07/10 06:31:16;;;;;;;7.47;1.70;;;16.90;96.20;;;;;;5092808;28;20032;-79
2022/07/10 06:33:42;;;;;;;7.78;2.00;;;16.90;96.30;;;;;;5093120;28;20032;-79
2022/07/10 06:36:08;;;;;;;6.82;1.98;;;16.90;96.30;;;;;;5092901;28;20032;-79
2022/07/10 06:38:33;;;;;;;8.02;1.60;;;16.80;96.40;;;;;;5092779;28;20514;-79
2022/07/10 06:40:59;;;;;;;8.95;2.05;;;16.80;96.10;;;;;;5091532;28;20480;-79
2022/07/10 06:43:25;;;;;;;5.57;1.58;;;16.90;96.20;;;;;;5092787;28;20032;-79
2022/07/10 06:45:51;;;;;;;7.38;2.20;;;16.80;96.30;;;;;;5091116;28;20040;-79
2022/07/10 06:48:17;;;;;;;6.72;1.52;;;16.90;96.20;;;;;;5092674;28;20031;-79
2022/07/10 06:50:43;;;;;;;6.82;1.70;;;16.90;96.30;;;;;;5074209;28;20032;-79
2022/07/10 06:53:08;;;;;;;8.80;1.98;;;16.90;96.30;;;;;;5092480;28;20024;-79
2022/07/10 06:55:35;;;;;;;17.33;7.20;;;16.90;96.10;;;;;;5091249;28;20365;-79
2022/07/10 06:58:01;;;;;;;12.48;2.78;;;17.00;96.00;;;;;;5092492;28;20035;-79
2022/07/10 07:00:27;;;;;;;7.53;2.30;;;17.00;96.10;;;;;;5092105;28;20381;-79
2022/07/10 07:02:53;;;;;;;10.43;2.42;;;17.00;95.90;;;;;;5090936;28;20028;-79
2022/07/10 07:05:19;;;;;;;7.07;1.70;;;17.00;96.00;;;;;;5090725;28;20476;-79
2022/07/10 07:07:45;;;;;;;6.85;2.33;;;17.10;96.00;;;;;;5092068;28;20104;-79
2022/07/10 07:10:12;;;;;;;7.88;2.17;;;17.10;95.90;;;;;;5090670;28;20499;-79
2022/07/10 07:12:38;;;;;;;9.27;3.45;;;17.00;95.80;;;;;;5092006;28;20492;-79
2022/07/10 07:15:06;;;;;;;10.85;3.45;;;17.10;95.60;;;;;;5089999;28;20042;-79
2022/07/10 07:17:45;;;;;;;9.25;3.00;;;17.10;95.50;;;;;;5092031;28;20028;-79
2022/07/10 07:23:11;;;;;;;7.88;2.70;;;17.00;95.50;;;;;;5091719;28;20027;-79
2022/07/10 07:25:41;;;;;;;18.17;3.45;;;17.00;95.40;;;;;;5090647;28;20032;-79
2022/07/10 07:28:08;;;;;;;9.30;2.78;;;17.00;95.60;;;;;;5091808;28;20584;-79
2022/07/10 07:30:34;;;;;;;17.48;3.15;;;17.00;95.80;;;;;;5091526;28;20024;-79
2022/07/10 07:32:59;;;;;;;11.00;3.00;;;17.00;96.00;;;;;;5090383;28;20111;-79
2022/07/10 07:35:25;;;;;;;9.25;2.90;;;16.90;96.10;;;;;;5090353;28;20032;-79
2022/07/10 07:37:51;;;;;;;10.15;2.90;;;16.90;96.10;;;;;;5090008;28;20043;-79
2022/07/10 07:40:24;;;;;;;9.85;3.58;;;16.90;96.30;;;;;;5090097;28;20067;-79
2022/07/10 07:42:51;;;;;;;7.70;2.75;;;16.90;96.40;;;;;;5091485;28;20550;-79
2022/07/10 07:45:17;;;;;;;8.73;2.85;;;16.90;96.60;;;;;;5091357;28;20036;-79
2022/07/10 07:47:48;;;;;;;8.23;2.38;;;16.90;96.90;;;;;;5091282;28;20115;-79
2022/07/10 07:50:16;;;;;;;10.40;2.30;;;16.90;97.40;;;;;;5091479;28;20024;-79
2022/07/10 07:52:42;;;;;;;6.85;1.73;;;16.90;97.60;;;;;;5090154;28;20089;-79
2022/07/10 07:55:09;;;;;;;6.03;2.13;;;17.00;97.80;;;;;;5089921;28;20067;-81
2022/07/10 07:57:34;;;;;;;6.53;1.92;;;16.90;98.20;;;;;;5091180;28;20032;-79
2022/07/10 08:00:00;;;;;;;7.50;2.15;;;16.90;98.10;;;;;;5091071;28;20101;-78
2022/07/10 08:02:26;;;;;;;8.95;1.90;;;16.90;98.50;;;;;;5091285;28;20036;-81
2022/07/10 08:04:52;;;;;;;8.63;2.10;;;16.80;99.00;;;;;;5089441;28;20488;-79
2022/07/10 08:07:17;;;;;;;6.38;1.90;;;16.80;99.80;;;;;;5090995;28;20211;-81
2022/07/10 08:09:44;;;;;;;9.65;2.80;;;16.80;99.90;;;;;;5090989;28;20024;-79
2022/07/10 08:12:10;;;;;;;6.20;2.28;;;16.70;99.90;;;;;;5091042;28;20036;-79
2022/07/10 08:14:36;;;;;;;10.10;2.90;;;16.70;99.90;;;;;;5090906;28;20471;-79
2022/07/10 08:17:02;;;;;;;12.48;2.95;;;16.70;99.90;;;;;;5090816;28;20108;-79
2022/07/10 08:19:27;;;;;;;5.85;2.50;;;16.60;99.90;;;;;;5090676;28;20399;-79
2022/07/10 08:21:53;;;;;;;7.95;3.08;;;16.70;99.90;;;;;;5090988;28;20024;-79
2022/07/10 08:24:19;;;;;;;8.43;3.45;;;16.70;99.90;;;;;;5090730;28;20028;-79
2022/07/10 08:26:44;;;;;;;11.85;3.92;;;16.60;99.90;;;;;;5093021;28;20279;-79
2022/07/10 08:29:10;;;;;;;7.75;2.78;;;16.70;99.90;;;;;;5093543;28;20066;-80
2022/07/10 08:31:36;;;;;;;10.82;2.60;;;16.70;99.90;;;;;;5095046;28;20119;-79
2022/07/10 08:34:02;;;;;;;9.82;3.10;;;16.80;99.90;;;;;;5094784;28;20020;-79
2022/07/10 08:36:28;;;;;;;8.55;2.75;;;16.80;99.90;;;;;;5095036;28;20097;-80
2022/07/10 08:38:54;;;;;;;10.07;2.70;;;16.80;99.90;;;;;;5094901;28;20101;-79
2022/07/10 08:41:25;;;;;;;7.63;2.58;;;16.80;99.90;;;;;;5094813;28;20099;-80
2022/07/10 08:43:51;;;;;;;6.72;2.33;;;16.80;99.90;;;;;;5094841;28;20119;-80
2022/07/10 08:46:17;;;;;;;10.43;2.85;;;16.80;99.90;;;;;;5094394;28;20039;-80
2022/07/10 08:48:49;;;;;;;9.10;3.00;;;16.90;99.90;;;;;;5094420;28;20103;-80
2022/07/10 08:51:30;;;;;;;8.48;2.92;;;16.90;99.90;;;;;;5094650;28;20036;-80
2022/07/10 08:54:00;;;;;;;10.23;3.30;;;16.90;99.90;;;;;;5093265;28;20492;-79
2022/07/10 08:56:26;;;;;;;7.90;2.97;;;17.00;99.90;;;;;;5093042;28;20373;-79
2022/07/10 08:58:53;;;;;;;11.63;2.75;;;16.90;99.90;;;;;;5092975;28;20035;-80
2022/07/10 09:01:22;;;;;;;9.18;2.75;;;16.90;99.90;;;;;;5094600;28;20377;-80
2022/07/10 09:03:51;;;;;;;8.05;3.40;;;16.90;99.90;;;;;;5094324;28;20036;-79
2022/07/10 09:06:17;;;;;;;8.85;3.10;;;16.90;99.90;;;;;;5094270;28;20058;-80
2022/07/10 09:08:59;;;;;;;8.57;3.10;;;16.90;99.90;;;;;;5092938;28;20618;-80
2022/07/10 09:11:28;;;;;;;10.43;3.10;;;16.90;99.90;;;;;;5092940;28;20135;-79
2022/07/10 09:13:57;;;;;;;9.68;3.10;;;16.90;99.90;;;;;;5094217;28;20016;-80
2022/07/10 09:16:30;;;;;;;8.60;3.00;;;16.90;99.90;;;;;;5075723;28;20035;-80
2022/07/10 09:18:57;;;;;;;7.30;3.10;;;16.90;99.90;;;;;;5093869;28;20503;-80
2022/07/10 09:21:23;;;;;;;8.48;2.67;;;16.90;99.90;;;;;;5093928;28;20108;-79
2022/07/10 09:23:49;;;;;;;9.75;3.03;;;16.90;99.90;;;;;;5094068;28;20024;-80
2022/07/10 09:26:15;;;;;;;12.57;3.53;;;16.90;99.90;;;;;;5093610;28;20067;-80
2022/07/10 09:28:41;;;;;;;10.30;2.95;;;16.90;99.90;;;;;;5093822;28;20495;-80
2022/07/10 09:31:07;;;;;;;7.47;2.70;;;16.90;99.90;;;;;;5092738;28;20155;-80
2022/07/10 09:33:35;;;;;;;8.73;2.92;;;16.90;99.90;;;;;;5092467;28;20024;-80
2022/07/10 09:36:12;;;;;;;8.57;3.15;;;16.80;99.90;;;;;;5092317;28;20032;-80
2022/07/10 09:38:43;;;;;;;10.73;2.80;;;16.90;99.90;;;;;;5093565;28;20090;-80
2022/07/10 09:41:14;;;;;;;7.05;2.40;;;16.90;99.90;;;;;;5093650;28;20110;-80
2022/07/10 09:43:50;;;;;;;14.05;2.70;;;17.00;99.90;;;;;;5093684;28;20029;-80
2022/07/10 09:46:18;;;;;;;7.70;2.40;;;17.00;99.90;;;;;;5093221;28;20488;-80
2022/07/10 09:48:44;;;;;;;10.85;2.92;;;17.10;99.90;;;;;;5092167;28;20047;-80
2022/07/10 09:51:11;;;;;;;10.40;3.50;;;17.10;99.90;;;;;;5092049;28;20024;-79
2022/07/10 09:53:42;;;;;;;15.32;5.35;;;17.10;99.90;;;;;;5093617;28;20290;-79
2022/07/10 09:56:11;;;;;;;15.07;6.00;;;17.10;99.90;;;;;;5093361;28;20028;-80
2022/07/10 09:58:38;;;;;;;16.88;6.30;;;17.10;99.90;;;;;;5093345;28;20028;-79
2022/07/10 10:01:05;;;;;;;14.57;4.60;;;17.10;99.90;;;;;;5093397;28;20036;-79
2022/07/10 10:03:41;;;;;;;10.23;3.22;;;17.20;99.90;;;;;;5091726;28;20040;-79
2022/07/10 10:06:16;;;;;;;6.65;2.72;;;17.30;99.90;;;;;;5092996;28;20103;-79
2022/07/10 10:09:02;;;;;;;8.15;3.03;;;17.30;99.90;;;;;;5092899;28;20024;-79
2022/07/10 10:11:31;;;;;;;5.63;2.85;;;17.30;99.90;;;;;;5074948;28;20036;-79
2022/07/10 10:13:58;;;;;;;6.13;3.50;;;17.30;99.90;;;;;;5092959;28;20472;-79
2022/07/10 10:16:27;;;;;;;7.30;3.60;;;17.30;99.90;;;;;;5091535;28;20114;-79
2022/07/10 10:21:39;;;;;;;6.60;3.45;;;17.20;99.90;;;;;;5092884;28;20116;-80
2022/07/10 10:24:06;;;;;;;6.93;3.28;;;17.10;99.90;;;;;;5092958;28;20541;-80
2022/07/10 10:26:32;;;;;;;5.65;3.15;;;17.10;99.90;;;;;;5092538;28;20586;-80
2022/07/10 10:29:01;;;;;;;4.55;2.58;;;17.10;99.90;;;;;;5074512;28;20028;-80
2022/07/10 10:31:28;;;;;;;6.07;2.55;;;17.10;99.90;;;;;;5092726;28;20032;-79
2022/07/10 10:33:55;;;;;;;5.85;2.38;;;17.10;99.90;;;;;;5092671;28;20067;-79
2022/07/10 10:36:36;;;;;;;4.35;1.70;;;17.10;99.90;;;;;;5092280;28;20042;-79
2022/07/10 10:39:10;;;;;;;3.58;1.73;;;17.20;99.90;;;;;;5092366;28;20028;-79
2022/07/10 10:41:49;;;;;;;4.50;1.85;;;17.20;99.90;;;;;;5091040;28;20040;-79
2022/07/10 10:44:15;;;;;;;;;;;17.30;99.90;;;;;;5092901;28;20119;-79
2022/07/10 10:46:54;;;;;;;3.03;1.60;;;17.40;99.90;;;;;;5090944;28;19908;-79
2022/07/10 10:49:21;;;;;;;3.85;1.73;;;17.50;99.90;;;;;;5091215;28;20028;-79
2022/07/10 10:52:08;;;;;;;5.55;3.20;;;17.70;99.90;;;;;;5090835;28;20043;-79
2022/07/10 10:54:56;;;;;;;3.85;2.38;;;17.80;99.90;;;;;;5091037;28;20396;-79
2022/07/10 10:57:23;;;;;;;4.18;1.90;;;17.80;99.90;;;;;;5090665;28;20078;-79
2022/07/10 10:59:50;;;;;;;4.25;1.83;;;17.90;99.90;;;;;;5090467;28;20027;-79
2022/07/10 11:02:37;;;;;;;4.80;2.20;;;17.90;99.90;;;;;;5090745;28;20499;-79
2022/07/10 11:05:17;;;;;;;5.57;2.85;;;17.90;99.90;;;;;;5104307;22;20127;-82
2022/07/10 11:07:56;;;;;;;4.30;1.90;;;17.80;99.90;;;;;;5090824;28;20024;-83
2022/07/10 11:10:37;;;;;;;4.13;2.08;;;17.90;99.90;;;;;;5090517;28;20024;-82
2022/07/10 11:13:04;;;;;;;4.00;1.58;;;17.80;99.90;;;;;;5090892;28;20028;-84
2022/07/10 11:15:32;;;;;;;4.72;2.10;;;17.80;99.90;;;;;;5091904;28;20113;-83
2022/07/10 11:18:08;;;;;;;4.65;1.73;;;17.80;99.90;;;;;;5091736;28;20028;-82
2022/07/10 11:20:40;;;;;;;8.38;1.50;;;17.80;99.90;;;;;;5091520;28;20043;-83
2022/07/10 11:23:17;;;;;;;3.47;1.60;;;17.80;99.90;;;;;;5092064;28;20024;-83
2022/07/10 11:26:07;;;;;;;3.33;1.65;;;17.90;99.90;;;;;;5091633;28;20392;-82
2022/07/10 11:28:40;;;;;;;5.40;2.08;;;18.00;99.90;;;;;;5091413;28;20051;-83
2022/07/10 11:31:06;;;;;;;3.80;1.90;;;18.00;99.90;;;;;;5091609;28;20507;-83
2022/07/10 11:33:43;;;;;;;6.55;1.80;;;18.10;99.90;;;;;;5091615;28;20058;-83
2022/07/10 11:36:21;;;;;;;4.13;1.85;;;18.20;99.90;;;;;;5091408;28;20515;-83
2022/07/10 11:38:48;;;;;;;5.40;1.88;;;18.30;99.90;;;;;;5090035;28;20381;-83
2022/07/10 11:41:17;;;;;;;4.03;1.90;;;18.40;99.90;;;;;;5091357;28;20051;-83
2022/07/10 11:43:57;;;;;;;5.97;2.17;;;18.40;99.90;;;;;;5091337;28;20110;-83
2022/07/10 11:46:25;;;;;;;4.93;2.38;;;18.40;99.90;;;;;;5091018;28;20546;-83
2022/07/10 11:48:56;;;;;;;6.73;1.80;;;18.40;99.90;;;;;;5091199;28;20024;-83
2022/07/10 11:51:27;;;;;;;6.20;2.30;;;18.40;99.90;;;;;;5091350;28;20032;-83
2022/07/10 11:54:05;;;;;;;7.22;2.30;;;18.30;99.90;;;;;;5091087;28;20028;-84
2022/07/10 11:56:34;;;;;;;4.20;1.70;;;18.30;99.90;;;;;;5091139;28;20077;-83
2022/07/10 11:59:05;;;;;;;3.75;1.45;;;18.20;99.90;;;;;;5091149;28;20032;-83
2022/07/10 12:01:41;;;;;;;6.20;2.00;;;18.20;99.90;;;;;;5091422;28;20054;-83
2022/07/10 12:04:09;;;;;;;3.90;1.70;;;18.10;99.90;;;;;;5089697;28;20043;-83
2022/07/10 12:06:37;;;;;;;8.07;2.03;;;18.00;99.90;;;;;;5090888;28;20036;-83
2022/07/10 12:09:11;;;;;;;7.17;1.93;;;17.90;99.90;;;;;;5091119;28;20060;-83
2022/07/10 12:11:37;;;;;;;4.80;2.15;;;17.90;99.90;;;;;;5089939;28;20270;-83
2022/07/10 12:14:18;;;;;;;6.75;2.10;;;17.80;99.90;;;;;;5090975;28;20029;-83
2022/07/10 12:16:46;;;;;;;5.72;1.90;;;17.80;99.90;;;;;;5089724;28;20115;-83
2022/07/10 12:19:14;;;;;;;8.13;2.17;;;17.70;99.90;;;;;;5089988;28;20028;-83
2022/07/10 12:21:42;;;;;;;5.40;2.05;;;17.60;99.90;;;;;;5091166;28;20024;-83
2022/07/10 12:24:09;;;;;;;6.47;2.10;;;17.60;99.90;;;;;;5091043;28;20020;-83
2022/07/10 12:26:38;;;;;;;7.57;2.40;;;17.60;99.90;;;;;;5072677;28;20070;-83
2022/07/10 12:29:05;;;;;;;8.27;2.70;;;17.60;99.90;;;;;;5089657;28;20024;-83
2022/07/10 12:31:33;;;;;;;8.68;2.83;;;17.60;99.90;;;;;;5089847;28;20110;-83
2022/07/10 12:34:05;;;;;;;7.18;2.42;;;17.70;99.90;;;;;;5089889;28;20294;-83
2022/07/10 12:36:51;;;;;;;6.32;2.20;;;17.70;99.90;;;;;;5090809;28;20031;-83
2022/07/10 12:39:22;;;;;;;8.05;2.40;;;17.80;99.90;;;;;;5072631;28;20032;-83
2022/07/10 12:41:54;;;;;;;6.38;2.67;;;17.90;99.90;;;;;;5089673;28;20032;-83
2022/07/10 12:44:39;;;;;;;5.15;2.33;;;18.10;99.90;;;;;;5091040;28;20487;-83
2022/07/10 12:47:14;;;;;;;3.83;2.00;;;18.30;99.90;;;;;;5089609;28;20116;-83
2022/07/10 12:49:53;;;;;;;5.35;2.20;;;18.60;99.90;;;;;;5090798;28;20032;-83
2022/07/10 12:52:30;;;;;;;5.18;2.55;;;18.70;99.90;;;;;;5089489;28;20107;-83
2022/07/10 12:55:09;;;;;;;5.15;2.28;;;18.70;99.90;;;;;;5090941;28;20489;-83
2022/07/10 12:57:58;;;;;;;6.82;2.30;;;18.60;99.90;;;;;;5089353;28;20028;-84
2022/07/10 13:00:33;;;;;;;6.03;2.22;;;18.60;99.90;;;;;;5090532;28;20043;-83